createdAt,value
2022-08-17T00:00:47.000Z,118.7
2022-08-17T00:02:03.000Z,120.6
2022-08-17T00:03:20.000Z,121.8
2022-08-17T00:04:36.000Z,129.5
2022-08-17T00:05:52.000Z,121.1
2022-08-17T00:07:08.000Z,120.2
2022-08-17T00:08:24.877Z,125.3
2022-08-17T00:09:39.000Z,128.4
2022-08-17T00:10:55.000Z,125.7
2022-08-17T00:12:12.000Z,122.5
2022-08-17T00:13:28.000Z,128.5
2022-08-17T00:14:44.000Z,128
2022-08-17T00:16:00.000Z,132.3
2022-08-17T00:17:16.000Z,131.5
2022-08-17T00:18:33.059Z,117.9
2022-08-17T00:19:48.000Z,120.3
2022-08-17T00:21:05.000Z,132
2022-08-17T00:22:21.000Z,131.9
2022-08-17T00:23:37.633Z,114.3
2022-08-17T00:24:53.000Z,126.5
2022-08-17T00:26:08.000Z,131.3
2022-08-17T00:27:24.000Z,123.3
2022-08-17T00:28:41.000Z,120.3
2022-08-17T00:29:57.000Z,126.8
2022-08-17T00:31:13.000Z,133.4
2022-08-17T00:32:29.668Z,127.1
2022-08-17T00:33:45.813Z,139.2
2022-08-17T00:35:01.000Z,135.7
2022-08-17T00:36:17.000Z,125.6
2022-08-17T00:37:34.000Z,133.3
2022-08-17T00:38:50.000Z,129.5
2022-08-17T00:40:06.000Z,128.8
2022-08-17T00:41:22.690Z,131.9
2022-08-17T00:42:37.000Z,121.2
2022-08-17T00:43:53.993Z,126.1
2022-08-17T00:45:09.000Z,116
2022-08-17T00:46:26.281Z,106.8
2022-08-17T00:47:42.000Z,105.1
2022-08-17T00:48:58.000Z,117
2022-08-17T00:50:14.000Z,128.7
2022-08-17T00:51:30.000Z,146.5
2022-08-17T00:52:46.000Z,166.8
2022-08-17T00:54:03.155Z,196.2
2022-08-17T00:55:19.000Z,188.3
2022-08-17T00:56:35.000Z,191.6
2022-08-17T00:57:51.000Z,180.5
2022-08-17T00:59:06.000Z,165.8
2022-08-17T01:00:22.000Z,166
2022-08-17T01:01:39.044Z,163
2022-08-17T01:02:54.000Z,149.5
2022-08-17T01:04:11.000Z,145.6
2022-08-17T01:05:27.000Z,153.7
2022-08-17T01:06:43.000Z,144.6
2022-08-17T01:07:59.000Z,146.8
2022-08-17T01:09:15.000Z,175.3
2022-08-17T01:10:31.000Z,157.1
2022-08-17T01:11:47.000Z,155.6
2022-08-17T01:13:04.000Z,157.3
2022-08-17T01:14:20.000Z,152.1
2022-08-17T01:15:35.000Z,179.6
2022-08-17T01:16:51.000Z,169
2022-08-17T01:18:07.000Z,167
2022-08-17T01:19:24.092Z,167.7
2022-08-17T01:20:40.000Z,195
2022-08-17T01:21:56.000Z,170.7
2022-08-17T01:23:12.000Z,168.5
2022-08-17T01:24:28.000Z,152.1
2022-08-17T01:25:44.000Z,155.3
2022-08-17T01:27:00.000Z,132.7
2022-08-17T01:28:16.000Z,142.5
2022-08-17T01:29:33.000Z,136.6
2022-08-17T01:30:49.000Z,178.6
2022-08-17T01:32:04.000Z,153.7
2022-08-17T01:33:20.000Z,154
2022-08-17T01:34:36.000Z,167.9
2022-08-17T01:35:52.000Z,150
2022-08-17T01:37:08.000Z,172.9
2022-08-17T01:38:25.000Z,152.7
2022-08-17T01:39:41.000Z,150.1
2022-08-17T01:40:57.000Z,149.1
2022-08-17T01:42:13.000Z,183.9
2022-08-17T01:43:29.000Z,140
2022-08-17T01:44:45.000Z,123.4
2022-08-17T01:46:01.000Z,137.7
2022-08-17T01:47:18.000Z,161.8
2022-08-17T01:48:33.000Z,131.4
2022-08-17T01:49:49.000Z,135.3
2022-08-17T01:51:05.000Z,138.9
2022-08-17T01:52:21.000Z,140.8
2022-08-17T01:53:38.049Z,134.5
2022-08-17T01:54:53.000Z,140
2022-08-17T01:56:10.000Z,148.5
2022-08-17T01:57:26.000Z,154.4
2022-08-17T01:58:42.000Z,160.4
2022-08-17T01:59:58.000Z,150.9
2022-08-17T02:01:14.000Z,149.8
2022-08-17T02:02:30.000Z,147.3
2022-08-17T02:03:46.000Z,148
2022-08-17T02:05:02.000Z,154.3
2022-08-17T02:06:18.000Z,168.4
2022-08-17T02:07:34.000Z,158
2022-08-17T02:08:50.000Z,148
2022-08-17T02:10:06.954Z,145.1
2022-08-17T02:11:22.000Z,149.1
2022-08-17T02:12:39.000Z,140.9
2022-08-17T02:13:55.000Z,140
2022-08-17T02:15:11.000Z,144.3
2022-08-17T02:16:27.000Z,131.5
2022-08-17T02:17:43.000Z,159.5
2022-08-17T02:18:59.000Z,136.9
2022-08-17T02:20:15.000Z,142.9
2022-08-17T02:21:31.000Z,139.9
2022-08-17T02:22:47.000Z,149
2022-08-17T02:24:03.000Z,150.2
2022-08-17T02:25:19.000Z,165.8
2022-08-17T02:26:35.000Z,146.5
2022-08-17T02:27:51.000Z,129.7
2022-08-17T02:29:07.000Z,162.8
2022-08-17T02:30:24.000Z,135
2022-08-17T02:31:40.000Z,179.5
2022-08-17T02:32:56.000Z,182.3
2022-08-17T02:34:12.000Z,232.5
2022-08-17T02:35:28.000Z,153.3
2022-08-17T02:36:44.000Z,209.9
2022-08-17T02:37:59.000Z,159.7
2022-08-17T02:39:16.000Z,157.3
2022-08-17T02:40:32.000Z,174.9
2022-08-17T02:41:48.612Z,140.6
2022-08-17T02:43:04.000Z,136.3
2022-08-17T02:44:20.903Z,146.3
2022-08-17T02:45:36.000Z,130.1
2022-08-17T02:46:52.000Z,134.2
2022-08-17T02:48:09.000Z,169.7
2022-08-17T02:49:25.000Z,156.6
2022-08-17T02:50:41.633Z,164.1
2022-08-17T02:51:57.773Z,178.3
2022-08-17T02:53:13.000Z,189.2
2022-08-17T02:54:28.000Z,151.1
2022-08-17T02:55:45.000Z,138.9
2022-08-17T02:57:01.000Z,163.8
2022-08-17T02:58:17.000Z,138.8
2022-08-17T02:59:33.000Z,154.7
2022-08-17T03:00:49.000Z,161
2022-08-17T03:02:05.000Z,127
2022-08-17T03:03:22.111Z,145
2022-08-17T03:04:38.000Z,140.5
2022-08-17T03:05:54.000Z,146.8
2022-08-17T03:07:10.000Z,138
2022-08-17T03:08:26.000Z,144.6
2022-08-17T03:09:42.000Z,161.7
2022-08-17T03:10:57.000Z,188
2022-08-17T03:12:13.000Z,191.1
2022-08-17T03:13:30.000Z,151
2022-08-17T03:14:46.000Z,144.1
2022-08-17T03:16:02.000Z,158.9
2022-08-17T03:17:18.000Z,124.3
2022-08-17T03:18:33.000Z,126.3
2022-08-17T03:19:49.000Z,131.3
2022-08-17T03:21:05.000Z,120
2022-08-17T03:22:22.000Z,168
2022-08-17T03:23:38.000Z,208.2
2022-08-17T03:24:54.000Z,125.3
2022-08-17T03:26:10.000Z,255
2022-08-17T03:27:26.000Z,247.5
2022-08-17T03:28:42.000Z,205.6
2022-08-17T03:29:58.000Z,152.1
2022-08-17T03:31:15.000Z,214.8
2022-08-17T03:32:31.000Z,212.8
2022-08-17T03:33:47.000Z,177.6
2022-08-17T03:35:02.000Z,119.9
2022-08-17T03:36:18.000Z,121.5
2022-08-17T03:37:34.000Z,142.9
2022-08-17T03:38:50.000Z,102.4
2022-08-17T03:40:07.000Z,103.4
2022-08-17T03:41:23.000Z,103.6
2022-08-17T03:42:39.000Z,97.7
2022-08-17T03:43:55.000Z,91.3
2022-08-17T03:45:11.000Z,122.8
2022-08-17T03:46:27.000Z,106.8
2022-08-17T03:47:44.000Z,88.8
2022-08-17T03:49:00.383Z,102.9
2022-08-17T03:50:16.000Z,148.3
2022-08-17T03:51:31.000Z,122
2022-08-17T03:52:47.000Z,116.2
2022-08-17T03:54:03.000Z,115.1
2022-08-17T03:55:19.000Z,118.9
2022-08-17T03:56:36.000Z,195.1
2022-08-17T03:57:52.000Z,171.7
2022-08-17T03:59:08.000Z,137.9
2022-08-17T04:00:24.000Z,190.3
2022-08-17T04:01:40.000Z,192.6
2022-08-17T04:02:56.000Z,167.3
2022-08-17T04:04:12.000Z,177
2022-08-17T04:05:29.000Z,246.4
2022-08-17T04:06:45.448Z,200.1
2022-08-17T04:08:00.000Z,179.6
2022-08-17T04:09:16.000Z,201.5
2022-08-17T04:10:32.000Z,217.5
2022-08-17T04:11:48.000Z,288.5
2022-08-17T04:13:04.000Z,193.9
2022-08-17T04:14:21.000Z,187.9
2022-08-17T04:15:37.000Z,150.7
2022-08-17T04:16:53.000Z,212.5
2022-08-17T04:18:09.000Z,190.8
2022-08-17T04:19:25.000Z,188.4
2022-08-17T04:20:41.000Z,148.4
2022-08-17T04:21:57.000Z,189.7
2022-08-17T04:23:14.000Z,161.9
2022-08-17T04:24:29.000Z,148.4
2022-08-17T04:25:45.000Z,159.3
2022-08-17T04:27:01.000Z,153.9
2022-08-17T04:28:17.000Z,169.4
2022-08-17T04:29:33.000Z,195.2
2022-08-17T04:30:50.263Z,183.3
2022-08-17T04:32:06.000Z,206.1
2022-08-17T04:33:22.000Z,208.4
2022-08-17T04:34:38.000Z,187.4
2022-08-17T04:35:54.000Z,279
2022-08-17T04:37:10.990Z,277.2
2022-08-17T04:38:26.000Z,244.6
2022-08-17T04:39:43.000Z,194.7
2022-08-17T04:40:58.000Z,243.4
2022-08-17T04:42:14.000Z,213
2022-08-17T04:43:30.000Z,202.9
2022-08-17T04:44:46.000Z,183.5
2022-08-17T04:46:02.000Z,202.7
2022-08-17T04:47:18.000Z,201.4
2022-08-17T04:48:35.000Z,220.4
2022-08-17T04:49:51.000Z,196.6
2022-08-17T04:51:07.000Z,197.6
2022-08-17T04:52:23.000Z,159.4
2022-08-17T04:53:39.919Z,214.6
2022-08-17T04:54:55.000Z,219.8
2022-08-17T04:56:11.000Z,178.1
2022-08-17T04:57:27.000Z,145.2
2022-08-17T04:58:43.000Z,194.3
2022-08-17T04:59:59.000Z,185.5
2022-08-17T05:01:15.812Z,155.9
2022-08-17T05:02:31.955Z,139.3
2022-08-17T05:03:47.000Z,144.7
2022-08-17T05:05:04.250Z,146.2
2022-08-17T05:06:20.000Z,145.5
2022-08-17T05:07:36.000Z,182.8
2022-08-17T05:08:52.000Z,159.3
2022-08-17T05:10:08.000Z,141.4
2022-08-17T05:11:24.000Z,150.2
2022-08-17T05:12:40.000Z,177.7
2022-08-17T05:13:56.000Z,158.5
2022-08-17T05:15:12.448Z,166
2022-08-17T05:16:28.000Z,149.5
2022-08-17T05:17:44.728Z,140.1
2022-08-17T05:19:00.000Z,151.3
2022-08-17T05:20:16.000Z,170.6
2022-08-17T05:21:33.172Z,170.9
2022-08-17T05:22:49.334Z,149.6
2022-08-17T05:24:05.000Z,141.6
2022-08-17T05:25:21.613Z,132.7
2022-08-17T05:26:37.757Z,149
2022-08-17T05:27:53.000Z,142.2
2022-08-17T05:29:10.054Z,145.3
2022-08-17T05:30:24.000Z,154.8
2022-08-17T05:31:41.359Z,139.3
2022-08-17T05:32:57.502Z,138
2022-08-17T05:34:13.000Z,131.4
2022-08-17T05:35:29.826Z,135.1
2022-08-17T05:36:45.000Z,140.7
2022-08-17T05:38:01.000Z,148.9
2022-08-17T05:39:18.000Z,135.3
2022-08-17T05:40:34.388Z,124.8
2022-08-17T05:41:50.532Z,130.4
2022-08-17T05:43:06.000Z,129.1
2022-08-17T05:44:22.000Z,129.3
2022-08-17T05:45:38.972Z,139.1
2022-08-17T05:46:53.000Z,147.3
2022-08-17T05:48:10.000Z,191.9
2022-08-17T05:49:26.000Z,151.6
2022-08-17T05:50:42.575Z,168
2022-08-17T05:51:58.721Z,164.7
2022-08-17T05:53:14.000Z,159.3
2022-08-17T05:54:31.018Z,157.3
2022-08-17T05:55:46.000Z,176.4
2022-08-17T05:57:03.000Z,169.6
2022-08-17T05:58:19.000Z,144.8
2022-08-17T05:59:35.000Z,150.6
2022-08-17T06:00:51.000Z,142.1
2022-08-17T06:02:07.000Z,134.2
2022-08-17T06:03:22.000Z,148.1
2022-08-17T06:04:38.000Z,118.2
2022-08-17T06:05:55.000Z,126.8
2022-08-17T06:07:11.000Z,117.4
2022-08-17T06:08:27.648Z,114.3
2022-08-17T06:09:43.788Z,99.4
2022-08-17T06:10:59.000Z,97.1
2022-08-17T06:12:16.104Z,88
2022-08-17T06:13:32.232Z,82.9
2022-08-17T06:14:48.376Z,77.5
2022-08-17T06:16:04.000Z,73.9
2022-08-17T06:17:20.000Z,79.3
2022-08-17T06:18:36.820Z,72.2
2022-08-17T06:19:51.000Z,67.5
2022-08-17T06:21:07.000Z,66.7
2022-08-17T06:22:24.000Z,64.2
2022-08-17T06:23:40.000Z,61
2022-08-17T06:24:56.000Z,55.8
2022-08-17T06:26:12.000Z,58.5
2022-08-17T06:27:28.000Z,53.2
2022-08-17T06:28:44.000Z,59.9
2022-08-17T06:30:00.000Z,51.9
2022-08-17T06:31:17.000Z,54.1
2022-08-17T06:32:33.000Z,55.2
2022-08-17T06:33:49.000Z,52.2
2022-08-17T06:35:05.749Z,54.1
2022-08-17T06:36:20.000Z,51.4
2022-08-17T06:37:36.000Z,51.5
2022-08-17T06:38:52.000Z,56.4
2022-08-17T06:40:09.000Z,51
2022-08-17T06:41:25.000Z,53.6
2022-08-17T06:42:41.642Z,59
2022-08-17T06:43:57.000Z,57.7
2022-08-17T06:45:13.000Z,56.4
2022-08-17T06:46:30.077Z,60.9
2022-08-17T06:47:45.000Z,57.1
2022-08-17T06:49:02.000Z,52.4
2022-08-17T06:50:18.000Z,53.3
2022-08-17T06:51:34.000Z,59.9
2022-08-17T06:52:49.000Z,59.8
2022-08-17T06:54:05.000Z,59.1
2022-08-17T06:55:21.000Z,55.3
2022-08-17T06:56:38.271Z,62.1
2022-08-17T06:57:54.414Z,63.8
2022-08-17T06:59:10.000Z,66.7
2022-08-17T07:00:26.000Z,59.4
2022-08-17T07:01:42.852Z,64.4
2022-08-17T07:02:58.000Z,56.6
2022-08-17T07:04:14.000Z,58.9
2022-08-17T07:05:31.296Z,55.4
2022-08-17T07:06:47.000Z,56.5
2022-08-17T07:08:03.000Z,56.7
2022-08-17T07:09:18.000Z,59.9
2022-08-17T07:10:34.000Z,57
2022-08-17T07:11:50.000Z,56.3
2022-08-17T07:13:06.000Z,52.1
2022-08-17T07:14:23.000Z,56.4
2022-08-17T07:15:39.000Z,52.7
2022-08-17T07:16:55.000Z,57.1
2022-08-17T07:18:11.773Z,59.8
2022-08-17T07:19:27.000Z,62.2
2022-08-17T07:20:43.000Z,54.7
2022-08-17T07:21:59.000Z,60.3
2022-08-17T07:23:16.357Z,63.1
2022-08-17T07:24:32.000Z,61.7
2022-08-17T07:25:47.000Z,64
2022-08-17T07:27:03.000Z,62.9
2022-08-17T07:28:19.000Z,61.8
2022-08-17T07:29:35.000Z,64.1
2022-08-17T07:30:52.268Z,76.5
2022-08-17T07:32:08.000Z,72.5
2022-08-17T07:33:23.000Z,72.2
2022-08-17T07:34:39.000Z,67.8
2022-08-17T07:35:55.872Z,70.4
2022-08-17T07:37:11.000Z,73.1
2022-08-17T07:38:27.000Z,73.7
2022-08-17T07:39:44.000Z,79.1
2022-08-17T07:41:00.000Z,75.8
2022-08-17T07:42:16.000Z,74.2
2022-08-17T07:43:32.000Z,77.6
2022-08-17T07:44:48.000Z,84.4
2022-08-17T07:46:04.000Z,84.7
2022-08-17T07:47:20.000Z,82.3
2022-08-17T07:48:37.335Z,79.5
2022-08-17T07:49:52.502Z,79.8
2022-08-17T07:51:08.000Z,75.8
2022-08-17T07:52:24.000Z,76.9
2022-08-17T07:53:40.937Z,78.7
2022-08-17T07:54:57.080Z,84
2022-08-17T07:56:13.000Z,69.9
2022-08-17T07:57:29.000Z,72.2
2022-08-17T07:58:45.000Z,67
2022-08-17T08:00:01.000Z,68.1
2022-08-17T08:01:17.000Z,62.2
2022-08-17T08:02:33.965Z,66.9
2022-08-17T08:03:49.000Z,69.1
2022-08-17T08:05:06.263Z,67
2022-08-17T08:06:21.424Z,65.6
2022-08-17T08:07:37.000Z,58.1
2022-08-17T08:08:53.712Z,67.2
2022-08-17T08:10:09.000Z,65.4
2022-08-17T08:11:25.000Z,63.7
2022-08-17T08:12:41.000Z,61.7
2022-08-17T08:13:58.000Z,58.6
2022-08-17T08:15:14.000Z,56.9
2022-08-17T08:16:30.596Z,64
2022-08-17T08:17:46.000Z,63.4
2022-08-17T08:19:02.000Z,57.8
2022-08-17T08:20:18.000Z,56
2022-08-17T08:21:34.000Z,61.5
2022-08-17T08:22:50.000Z,57.9
2022-08-17T08:24:06.488Z,59.2
2022-08-17T08:25:22.000Z,61.4
2022-08-17T08:26:38.000Z,60.9
2022-08-17T08:27:54.926Z,58.2
2022-08-17T08:29:10.000Z,59.9
2022-08-17T08:30:26.000Z,57.8
2022-08-17T08:31:43.370Z,64.4
2022-08-17T08:32:59.000Z,57.1
2022-08-17T08:34:15.000Z,62.3
2022-08-17T08:35:31.000Z,55.7
2022-08-17T08:36:47.000Z,55.4
2022-08-17T08:38:03.000Z,50.2
2022-08-17T08:39:19.000Z,57.4
2022-08-17T08:40:35.000Z,55.4
2022-08-17T08:41:51.561Z,54.7
2022-08-17T08:43:07.000Z,45.4
2022-08-17T08:44:23.000Z,46.9
2022-08-17T08:45:40.010Z,51.5
2022-08-17T08:46:55.000Z,51.6
2022-08-17T08:48:12.000Z,48.3
2022-08-17T08:49:28.000Z,51.9
2022-08-17T08:50:44.000Z,42.1
2022-08-17T08:52:00.000Z,49.1
2022-08-17T08:53:16.000Z,44
2022-08-17T08:54:32.000Z,45.5
2022-08-17T08:55:47.000Z,42.6
2022-08-17T08:57:04.000Z,42.1
2022-08-17T08:58:20.000Z,43.5
2022-08-17T08:59:36.628Z,41.2
2022-08-17T09:00:52.777Z,44.4
2022-08-17T09:02:08.000Z,38.6
2022-08-17T09:03:24.000Z,41.3
2022-08-17T09:04:40.000Z,42.9
2022-08-17T09:05:57.000Z,44.9
2022-08-17T09:07:13.000Z,43.7
2022-08-17T09:08:29.000Z,43.3
2022-08-17T09:09:45.000Z,42.2
2022-08-17T09:11:01.000Z,38.6
2022-08-17T09:12:16.000Z,36.2
2022-08-17T09:13:33.000Z,35.1
2022-08-17T09:14:49.000Z,34.9
2022-08-17T09:16:05.558Z,34.7
2022-08-17T09:17:21.000Z,43.7
2022-08-17T09:18:37.000Z,37
2022-08-17T09:19:53.000Z,35.8
2022-08-17T09:21:09.000Z,32.5
2022-08-17T09:22:26.000Z,29.8
2022-08-17T09:23:42.000Z,32.6
2022-08-17T09:24:58.000Z,33.6
2022-08-17T09:26:14.000Z,31.2
2022-08-17T09:27:30.000Z,35.6
2022-08-17T09:28:45.000Z,36.2
2022-08-17T09:30:01.000Z,31.5
2022-08-17T09:31:18.336Z,29.8
2022-08-17T09:32:34.000Z,31.7
2022-08-17T09:33:50.000Z,32.4
2022-08-17T09:35:06.000Z,27.7
2022-08-17T09:36:22.000Z,35.1
2022-08-17T09:37:39.063Z,33
2022-08-17T09:38:54.000Z,32.6
2022-08-17T09:40:11.361Z,35.2
2022-08-17T09:41:27.000Z,35.3
2022-08-17T09:42:43.000Z,32.1
2022-08-17T09:43:59.000Z,33.7
2022-08-17T09:45:14.000Z,30.1
2022-08-17T09:46:30.000Z,30.5
2022-08-17T09:47:47.251Z,32.4
2022-08-17T09:49:03.000Z,30.1
2022-08-17T09:50:19.000Z,30.4
2022-08-17T09:51:35.699Z,31.6
2022-08-17T09:52:51.837Z,29.6
2022-08-17T09:54:07.000Z,29.6
2022-08-17T09:55:23.000Z,34
2022-08-17T09:56:40.000Z,31.2
2022-08-17T09:57:56.000Z,26.4
2022-08-17T09:59:12.000Z,31.8
2022-08-17T10:00:28.725Z,29.2
2022-08-17T10:01:43.000Z,27.2
2022-08-17T10:03:00.034Z,34.6
2022-08-17T10:04:15.000Z,27.6
2022-08-17T10:05:32.330Z,30.4
2022-08-17T10:06:48.000Z,26.7
2022-08-17T10:08:04.000Z,31.6
2022-08-17T10:09:20.000Z,27.2
2022-08-17T10:10:36.000Z,30.6
2022-08-17T10:11:52.000Z,28.9
2022-08-17T10:13:08.000Z,28.8
2022-08-17T10:14:25.000Z,29.8
2022-08-17T10:15:41.000Z,28
2022-08-17T10:16:57.000Z,29.5
2022-08-17T10:18:12.000Z,24.4
2022-08-17T10:19:28.000Z,25.7
2022-08-17T10:20:44.000Z,30
2022-08-17T10:22:01.254Z,33.4
2022-08-17T10:23:17.000Z,30.1
2022-08-17T10:24:33.000Z,27.3
2022-08-17T10:25:49.694Z,33.8
2022-08-17T10:27:05.849Z,26.5
2022-08-17T10:28:21.000Z,28.3
2022-08-17T10:29:37.000Z,24.7
2022-08-17T10:30:54.280Z,24.6
2022-08-17T10:32:10.000Z,27
2022-08-17T10:33:26.000Z,24
2022-08-17T10:34:41.000Z,31.2
2022-08-17T10:35:57.000Z,23.8
2022-08-17T10:37:14.042Z,27.4
2022-08-17T10:38:29.000Z,24.7
2022-08-17T10:39:46.000Z,30.2
2022-08-17T10:41:02.000Z,28.4
2022-08-17T10:42:18.000Z,32.9
2022-08-17T10:43:34.000Z,28.8
2022-08-17T10:44:50.914Z,25.1
2022-08-17T10:46:06.000Z,25.1
2022-08-17T10:47:22.000Z,27.4
2022-08-17T10:48:39.000Z,30.2
2022-08-17T10:49:55.499Z,29.7
2022-08-17T10:51:10.664Z,21.6
2022-08-17T10:52:26.000Z,23.4
2022-08-17T10:53:42.964Z,25.3
2022-08-17T10:54:59.106Z,28.8
2022-08-17T10:56:15.000Z,27
2022-08-17T10:57:31.000Z,26
2022-08-17T10:58:47.544Z,27.4
2022-08-17T11:00:03.000Z,25.3
2022-08-17T11:01:19.000Z,26.1
2022-08-17T11:02:35.000Z,23.6
2022-08-17T11:03:52.157Z,26.1
2022-08-17T11:05:08.000Z,25
2022-08-17T11:06:24.444Z,25.7
2022-08-17T11:07:39.597Z,25.2
2022-08-17T11:08:55.750Z,27.5
2022-08-17T11:10:11.898Z,33.9
2022-08-17T11:11:27.000Z,29.5
2022-08-17T11:12:44.192Z,28.2
2022-08-17T11:14:00.000Z,27.9
2022-08-17T11:15:16.483Z,23.4
2022-08-17T11:16:32.000Z,23.6
2022-08-17T11:17:48.000Z,25.1
2022-08-17T11:19:04.000Z,24.7
2022-08-17T11:20:20.000Z,26.7
2022-08-17T11:21:37.215Z,19.6
2022-08-17T11:22:53.357Z,19.1
2022-08-17T11:24:08.520Z,26.9
2022-08-17T11:25:24.000Z,29.3
2022-08-17T11:26:40.000Z,25.6
2022-08-17T11:27:56.962Z,23.4
2022-08-17T11:29:12.000Z,23.2
2022-08-17T11:30:29.000Z,23.2
2022-08-17T11:31:45.415Z,25
2022-08-17T11:33:01.000Z,27.1
2022-08-17T11:34:17.000Z,25
2022-08-17T11:35:33.000Z,24.8
2022-08-17T11:36:49.999Z,19.8
2022-08-17T11:38:05.000Z,21.3
2022-08-17T11:39:22.000Z,25.3
2022-08-17T11:40:37.000Z,29.1
2022-08-17T11:41:53.000Z,21.3
2022-08-17T11:43:09.000Z,24.8
2022-08-17T11:44:25.000Z,28.5
2022-08-17T11:45:41.000Z,25.5
2022-08-17T11:46:57.000Z,22.5
2022-08-17T11:48:13.000Z,25.6
2022-08-17T11:49:29.505Z,25.2
2022-08-17T11:50:45.000Z,21.3
2022-08-17T11:52:01.000Z,25.5
2022-08-17T11:53:17.000Z,20.9
2022-08-17T11:54:33.000Z,27.8
2022-08-17T11:55:50.000Z,30.5
2022-08-17T11:57:06.391Z,20.8
2022-08-17T11:58:22.000Z,21.1
2022-08-17T11:59:38.000Z,18
2022-08-17T12:00:54.000Z,16.4
2022-08-17T12:02:10.000Z,16.7
2022-08-17T12:03:26.000Z,17.8
2022-08-17T12:04:42.000Z,20.1
2022-08-17T12:05:58.000Z,16.7
2022-08-17T12:07:14.000Z,15.8
2022-08-17T12:08:30.000Z,17.1
2022-08-17T12:09:46.000Z,18.3
2022-08-17T12:11:03.017Z,17.2
2022-08-17T12:12:18.000Z,14.9
2022-08-17T12:13:35.000Z,13.9
2022-08-17T12:14:51.457Z,15.3
2022-08-17T12:16:07.000Z,12.6
2022-08-17T12:17:23.000Z,16.8
2022-08-17T12:18:39.000Z,13.3
2022-08-17T12:19:56.048Z,13.2
2022-08-17T12:21:10.000Z,17.1
2022-08-17T12:22:27.000Z,12.6
2022-08-17T12:23:43.000Z,16.9
2022-08-17T12:24:59.000Z,13.3
2022-08-17T12:26:15.797Z,14.1
2022-08-17T12:27:31.000Z,17.3
2022-08-17T12:28:47.000Z,12
2022-08-17T12:30:04.000Z,15.6
2022-08-17T12:31:20.000Z,11.2
2022-08-17T12:32:36.000Z,11.6
2022-08-17T12:33:52.000Z,14.6
2022-08-17T12:35:08.000Z,13.9
2022-08-17T12:36:24.970Z,10.8
2022-08-17T12:37:39.000Z,11.9
2022-08-17T12:38:56.000Z,12.9
2022-08-17T12:40:12.000Z,13
2022-08-17T12:41:28.000Z,11.8
2022-08-17T12:42:44.000Z,12.1
2022-08-17T12:44:00.000Z,11.5
2022-08-17T12:45:16.000Z,17.6
2022-08-17T12:46:32.000Z,11.2
2022-08-17T12:47:49.000Z,9.9
2022-08-17T12:49:05.000Z,13.8
2022-08-17T12:50:21.000Z,12.3
2022-08-17T12:51:37.000Z,11.9
2022-08-17T12:52:53.000Z,12.5
2022-08-17T12:54:08.000Z,14.2
2022-08-17T12:55:24.000Z,11.9
2022-08-17T12:56:41.365Z,10.2
2022-08-17T12:57:57.000Z,14.3
2022-08-17T12:59:13.000Z,12.8
2022-08-17T13:00:29.000Z,9.1
2022-08-17T13:01:45.000Z,9.4
2022-08-17T13:03:01.000Z,12.6
2022-08-17T13:04:18.000Z,12.1
2022-08-17T13:05:34.000Z,9.6
2022-08-17T13:06:50.000Z,11.6
2022-08-17T13:08:06.000Z,8.8
2022-08-17T13:09:22.000Z,9.8
2022-08-17T13:10:37.000Z,10.4
2022-08-17T13:11:53.000Z,11.5
2022-08-17T13:13:10.000Z,10.8
2022-08-17T13:14:26.000Z,8.9
2022-08-17T13:15:42.000Z,10.7
2022-08-17T13:16:58.000Z,8.9
2022-08-17T13:18:14.000Z,9.2
2022-08-17T13:19:31.019Z,11.5
2022-08-17T13:20:46.000Z,11.6
2022-08-17T13:22:03.000Z,9.9
2022-08-17T13:23:19.000Z,8.6
2022-08-17T13:24:35.000Z,9.7
2022-08-17T13:25:51.748Z,9.3
2022-08-17T13:27:06.000Z,9.6
2022-08-17T13:28:22.000Z,12.2
2022-08-17T13:29:38.000Z,8.7
2022-08-17T13:30:55.347Z,9.8
2022-08-17T13:32:11.000Z,11
2022-08-17T13:33:27.000Z,11.6
2022-08-17T13:34:43.000Z,10.6
2022-08-17T13:35:59.923Z,10.6
2022-08-17T13:37:15.000Z,8.5
2022-08-17T13:38:32.211Z,9.2
2022-08-17T13:39:48.000Z,11
2022-08-17T13:41:04.000Z,10.4
2022-08-17T13:42:20.000Z,8.8
2022-08-17T13:43:35.819Z,16.3
2022-08-17T13:44:51.000Z,12.4
2022-08-17T13:46:07.000Z,9.2
2022-08-17T13:47:24.000Z,9
2022-08-17T13:48:40.000Z,14.4
2022-08-17T13:49:56.000Z,10.1
2022-08-17T13:51:12.000Z,11.8
2022-08-17T13:52:28.000Z,11.6
2022-08-17T13:53:44.000Z,13.4
2022-08-17T13:55:01.130Z,10.5
2022-08-17T13:56:17.000Z,9
2022-08-17T13:57:33.000Z,9.5
2022-08-17T13:58:49.000Z,12.2
2022-08-17T14:00:04.000Z,11.9
2022-08-17T14:01:20.000Z,7.7
2022-08-17T14:02:36.000Z,8.9
2022-08-17T14:03:52.000Z,11.2
2022-08-17T14:05:09.000Z,7.7
2022-08-17T14:06:25.000Z,8.9
2022-08-17T14:07:41.000Z,10.7
2022-08-17T14:08:57.737Z,11
2022-08-17T14:10:13.000Z,8.9
2022-08-17T14:11:30.023Z,8.9
2022-08-17T14:12:45.000Z,11.4
2022-08-17T14:14:02.312Z,9.9
2022-08-17T14:15:18.000Z,8.3
2022-08-17T14:16:33.656Z,7.5
2022-08-17T14:17:49.000Z,6.8
2022-08-17T14:19:05.000Z,7.3
2022-08-17T14:20:21.000Z,7.6
2022-08-17T14:21:38.204Z,8.9
2022-08-17T14:22:54.000Z,7.9
2022-08-17T14:24:10.509Z,9.5
2022-08-17T14:25:26.643Z,11.5
2022-08-17T14:26:42.796Z,10.2
2022-08-17T14:27:58.000Z,8.4
2022-08-17T14:29:14.000Z,6.9
2022-08-17T14:30:30.000Z,7.6
2022-08-17T14:31:47.000Z,7.7
2022-08-17T14:33:02.000Z,13
2022-08-17T14:34:18.000Z,8.5
2022-08-17T14:35:34.000Z,8.6
2022-08-17T14:36:50.000Z,11.3
2022-08-17T14:38:06.000Z,12.4
2022-08-17T14:39:23.257Z,8.9
2022-08-17T14:40:39.000Z,7.3
2022-08-17T14:41:55.000Z,10.8
2022-08-17T14:43:11.000Z,9.1
2022-08-17T14:44:27.000Z,8.2
2022-08-17T14:45:43.000Z,7.5
2022-08-17T14:46:59.000Z,6.9
2022-08-17T14:48:16.280Z,6.8
2022-08-17T14:49:31.000Z,11.3
2022-08-17T14:50:47.000Z,9.1
2022-08-17T14:52:03.000Z,8.8
2022-08-17T14:53:19.877Z,9.9
2022-08-17T14:54:35.000Z,8.6
2022-08-17T14:55:51.000Z,11
2022-08-17T14:57:08.000Z,10.4
2022-08-17T14:58:24.000Z,7.9
2022-08-17T14:59:40.000Z,11.7
2022-08-17T15:00:56.000Z,8.8
2022-08-17T15:02:12.900Z,8.2
2022-08-17T15:03:28.000Z,13.9
2022-08-17T15:04:45.187Z,12.2
2022-08-17T15:06:00.000Z,17.1
2022-08-17T15:07:16.000Z,7.8
2022-08-17T15:08:32.631Z,8.7
2022-08-17T15:09:48.000Z,12
2022-08-17T15:11:04.000Z,10.5
2022-08-17T15:12:20.000Z,11.5
2022-08-17T15:13:36.000Z,11.9
2022-08-17T15:14:53.000Z,9.4
2022-08-17T15:16:09.000Z,10.7
2022-08-17T15:17:25.000Z,8.3
2022-08-17T15:18:41.803Z,9.4
2022-08-17T15:19:57.946Z,9.7
2022-08-17T15:21:13.000Z,9.1
2022-08-17T15:22:29.000Z,7.5
2022-08-17T15:23:45.000Z,9.3
2022-08-17T15:25:01.000Z,9
2022-08-17T15:26:17.000Z,8
2022-08-17T15:27:33.000Z,6.7
2022-08-17T15:28:49.000Z,8.3
2022-08-17T15:30:05.000Z,8.2
2022-08-17T15:31:22.000Z,6.6
2022-08-17T15:32:38.000Z,7.2
2022-08-17T15:33:54.000Z,6.7
2022-08-17T15:35:10.000Z,7.9
2022-08-17T15:36:26.000Z,9
2022-08-17T15:37:42.000Z,9.1
2022-08-17T15:38:57.000Z,8.7
2022-08-17T15:40:14.000Z,16.9
2022-08-17T15:41:30.000Z,6.9
2022-08-17T15:42:46.000Z,7.9
2022-08-17T15:44:02.745Z,11
2022-08-17T15:45:18.000Z,9.4
2022-08-17T15:46:35.035Z,7.7
2022-08-17T15:47:50.000Z,6.7
2022-08-17T15:49:07.000Z,6.7
2022-08-17T15:50:23.000Z,8.6
2022-08-17T15:51:39.000Z,6.6
2022-08-17T15:52:55.000Z,8.7
2022-08-17T15:54:11.000Z,12
2022-08-17T15:55:27.072Z,7.7
2022-08-17T15:56:42.000Z,7.3
2022-08-17T15:57:59.000Z,7.6
2022-08-17T15:59:15.508Z,6.8
2022-08-17T16:00:31.000Z,7.8
2022-08-17T16:01:47.793Z,6.7
2022-08-17T16:03:02.967Z,8.9
2022-08-17T16:04:18.000Z,9.3
2022-08-17T16:05:35.000Z,6.9
2022-08-17T16:06:51.000Z,6.1
2022-08-17T16:08:07.000Z,8.8
2022-08-17T16:09:23.685Z,8.1
2022-08-17T16:10:39.000Z,12.7
2022-08-17T16:11:55.000Z,7.9
2022-08-17T16:13:11.000Z,5.2
2022-08-17T16:14:28.000Z,5.4
2022-08-17T16:15:44.000Z,14.9
2022-08-17T16:17:00.000Z,5.9
2022-08-17T16:18:16.707Z,5.2
2022-08-17T16:19:31.000Z,6.2
2022-08-17T16:20:47.000Z,5.2
2022-08-17T16:22:03.000Z,6.4
2022-08-17T16:23:20.305Z,4.7
2022-08-17T16:24:36.447Z,6.5
2022-08-17T16:25:52.000Z,6.9
2022-08-17T16:27:08.000Z,5
2022-08-17T16:28:24.000Z,4.6
2022-08-17T16:29:40.000Z,7.4
2022-08-17T16:30:56.000Z,4.6
2022-08-17T16:32:13.331Z,4.6
2022-08-17T16:33:29.000Z,6
2022-08-17T16:34:45.616Z,5.3
2022-08-17T16:36:00.000Z,8.7
2022-08-17T16:37:16.000Z,5.2
2022-08-17T16:38:33.064Z,5.1
2022-08-17T16:39:49.211Z,5.9
2022-08-17T16:41:05.000Z,6.9
2022-08-17T16:42:21.000Z,6
2022-08-17T16:43:37.000Z,6.7
2022-08-17T16:44:53.000Z,10.2
2022-08-17T16:46:09.000Z,5.9
2022-08-17T16:47:25.000Z,5.6
2022-08-17T16:48:41.000Z,5.4
2022-08-17T16:49:58.370Z,6.3
2022-08-17T16:51:14.000Z,6.3
2022-08-17T16:52:29.681Z,10.3